Etusivu
METAR-TAF:

METAR-TAF

Lentoasemat :

El Oued, Algeria

Leveyspiiri: 33-30-47N, Pituuspiiri: 006-46-57E, korkeus merenpinnasta: 62 m

Tämänhetkinen sää

Tämä raportti tehtiin 1 tunti ja 3 minuuttia sitten, kello 00.00 UTC
Tuuli 13 kn luoteesta
Lämpötila 15°C
Kosteus 39%
Ilmanpaine 1011 hPa
Näkyvyys: 5000 m
Muutamia pilviä 4600 ft:n korkeudessa

METAR: DAUO 010000Z 31013KT 5000 FEW046 15/01 Q1011

Aika: 02:03 (01:03 UTC)

Sääennuste

Tämä raportti tehtiin 2 tuntia ja 3 minuuttia sitten, kello 23.00 UTC
Ennuste voimassa 01. päivästä klo 00 UTC - 01. päivään klo 09 UTC
Tuuli 8 kn lännestä
Näkyvyys: 6000 m
Muutamia pilviä 4600 ft:n korkeudessa

TAF: DAUO 292300Z 0100/0109 26008KT 6000 FEW046

Säähavainnot ja -ennusteet yli 4000 lentoasemalta (METAR- ja TAF-raportit).

Käytössä olevat sääasemat on merkitty karttaan keltaisilla ja punaisilla pisteillä.

Aseta hiiri pisteen päälle nähdäksesi sääaseman nimen.

Klikkaa sitten nähdäksesi säähavainnot ja -ennusteet.

Kartan vaihtaminen: klikkaa mustalla rastilla varustettuja vihreitä pisteitä, niin voit zoomata sisään; viivalla varustettua vihreää pistettä, niin voit zoomata ulos tai vihreitä nuolia, niin pääset viereisille kartoille.


METAR-TAF: